sensor_id;sensor_type;location;lat;lon;timestamp;pressure;altitude;pressure_sealevel;temperature;humidity
64632;BME280;58358;50.936;0.246;2023-04-28T00:02:01;100321.84;;;10.03;100.00
64632;BME280;58358;50.936;0.246;2023-04-28T00:04:26;100321.28;;;9.95;100.00
64632;BME280;58358;50.936;0.246;2023-04-28T00:06:52;100323.27;;;9.79;100.00
64632;BME280;58358;50.936;0.246;2023-04-28T00:09:17;100324.51;;;10.35;100.00
64632;BME280;58358;50.936;0.246;2023-04-28T00:11:43;100318.62;;;10.50;100.00
64632;BME280;58358;50.936;0.246;2023-04-28T00:14:08;100319.15;;;10.33;100.00
64632;BME280;58358;50.936;0.246;2023-04-28T00:16:39;100317.05;;;11.02;100.00
64632;BME280;58358;50.936;0.246;2023-04-28T00:18:59;100312.06;;;10.54;100.00
64632;BME280;58358;50.936;0.246;2023-04-28T00:21:25;100316.57;;;10.78;100.00
64632;BME280;58358;50.936;0.246;2023-04-28T00:23:50;100317.87;;;10.25;100.00
64632;BME280;58358;50.936;0.246;2023-04-28T00:26:16;100310.24;;;9.59;100.00
64632;BME280;58358;50.936;0.246;2023-04-28T00:28:41;100309.25;;;9.51;100.00
64632;BME280;58358;50.936;0.246;2023-04-28T00:31:10;100308.89;;;9.35;100.00
64632;BME280;58358;50.936;0.246;2023-04-28T00:33:33;100311.25;;;8.96;100.00
64632;BME280;58358;50.936;0.246;2023-04-28T00:35:58;100310.60;;;10.15;100.00
64632;BME280;58358;50.936;0.246;2023-04-28T00:38:23;100305.22;;;10.17;100.00
64632;BME280;58358;50.936;0.246;2023-04-28T00:40:48;100305.92;;;10.91;100.00
64632;BME280;58358;50.936;0.246;2023-04-28T00:43:14;100305.45;;;10.06;100.00
64632;BME280;58358;50.936;0.246;2023-04-28T00:45:40;100311.24;;;10.21;100.00
64632;BME280;58358;50.936;0.246;2023-04-28T00:48:05;100311.62;;;10.74;100.00
64632;BME280;58358;50.936;0.246;2023-04-28T00:50:31;100310.42;;;9.19;100.00
64632;BME280;58358;50.936;0.246;2023-04-28T00:52:59;100309.75;;;9.93;100.00
64632;BME280;58358;50.936;0.246;2023-04-28T00:55:24;100306.58;;;10.97;100.00
64632;BME280;58358;50.936;0.246;2023-04-28T00:57:48;100304.14;;;11.76;100.00
64632;BME280;58358;50.936;0.246;2023-04-28T01:00:14;100303.44;;;11.55;100.00
64632;BME280;58358;50.936;0.246;2023-04-28T01:02:39;100303.91;;;11.75;100.00
64632;BME280;58358;50.936;0.246;2023-04-28T01:05:05;100303.15;;;11.17;100.00
64632;BME280;58358;50.936;0.246;2023-04-28T01:07:30;100302.15;;;10.82;100.00
64632;BME280;58358;50.936;0.246;2023-04-28T01:09:56;100304.40;;;10.31;100.00
64632;BME280;58358;50.936;0.246;2023-04-28T01:12:21;100300.11;;;11.39;100.00
64632;BME280;58358;50.936;0.246;2023-04-28T01:14:51;100295.79;;;11.28;100.00
64632;BME280;58358;50.936;0.246;2023-04-28T01:17:12;100307.35;;;10.47;100.00
64632;BME280;58358;50.936;0.246;2023-04-28T01:19:37;100306.54;;;10.97;100.00
64632;BME280;58358;50.936;0.246;2023-04-28T01:22:03;100303.16;;;11.19;100.00
64632;BME280;58358;50.936;0.246;2023-04-28T01:24:28;100299.68;;;10.81;100.00
64632;BME280;58358;50.936;0.246;2023-04-28T01:26:54;100298.44;;;11.44;100.00
64632;BME280;58358;50.936;0.246;2023-04-28T01:29:19;100302.76;;;10.90;100.00
64632;BME280;58358;50.936;0.246;2023-04-28T01:31:45;100310.70;;;11.08;100.00
64632;BME280;58358;50.936;0.246;2023-04-28T01:34:10;100306.66;;;11.02;100.00
64632;BME280;58358;50.936;0.246;2023-04-28T01:36:36;100308.25;;;10.86;100.00
64632;BME280;58358;50.936;0.246;2023-04-28T01:39:01;100310.45;;;10.25;100.00
64632;BME280;58358;50.936;0.246;2023-04-28T01:41:26;100313.57;;;9.53;100.00
64632;BME280;58358;50.936;0.246;2023-04-28T01:43:52;100311.12;;;9.79;100.00
64632;BME280;58358;50.936;0.246;2023-04-28T01:46:18;100310.21;;;9.60;100.00
64632;BME280;58358;50.936;0.246;2023-04-28T01:48:43;100319.23;;;9.44;100.00
64632;BME280;58358;50.936;0.246;2023-04-28T01:51:09;100316.62;;;9.14;100.00
64632;BME280;58358;50.936;0.246;2023-04-28T01:53:34;100310.55;;;9.12;100.00
64632;BME280;58358;50.936;0.246;2023-04-28T01:56:00;100317.15;;;9.28;100.00
64632;BME280;58358;50.936;0.246;2023-04-28T01:58:25;100316.30;;;10.12;100.00
64632;BME280;58358;50.936;0.246;2023-04-28T02:00:50;100316.15;;;10.12;100.00
64632;BME280;58358;50.936;0.246;2023-04-28T02:03:17;100309.29;;;9.17;100.00
64632;BME280;58358;50.936;0.246;2023-04-28T02:05:41;100305.92;;;9.46;100.00
64632;BME280;58358;50.936;0.246;2023-04-28T02:08:06;100306.89;;;9.27;100.00
64632;BME280;58358;50.936;0.246;2023-04-28T02:10:32;100305.14;;;9.45;100.00
64632;BME280;58358;50.936;0.246;2023-04-28T02:12:58;100300.50;;;9.71;100.00
64632;BME280;58358;50.936;0.246;2023-04-28T02:15:23;100301.23;;;10.58;100.00
64632;BME280;58358;50.936;0.246;2023-04-28T02:17:48;100305.08;;;10.97;100.00
64632;BME280;58358;50.936;0.246;2023-04-28T02:20:14;100306.39;;;10.57;100.00
64632;BME280;58358;50.936;0.246;2023-04-28T02:22:39;100306.02;;;9.66;100.00
64632;BME280;58358;50.936;0.246;2023-04-28T02:25:05;100304.46;;;9.64;100.00
64632;BME280;58358;50.936;0.246;2023-04-28T02:27:29;100305.40;;;8.93;100.00
64632;BME280;58358;50.936;0.246;2023-04-28T02:29:55;100298.73;;;9.56;100.00
64632;BME280;58358;50.936;0.246;2023-04-28T02:32:20;100297.77;;;9.71;100.00
64632;BME280;58358;50.936;0.246;2023-04-28T02:34:46;100296.62;;;9.51;100.00
64632;BME280;58358;50.936;0.246;2023-04-28T02:37:11;100294.17;;;8.75;100.00
64632;BME280;58358;50.936;0.246;2023-04-28T02:39:36;100295.08;;;9.33;100.00
64632;BME280;58358;50.936;0.246;2023-04-28T02:42:02;100297.67;;;9.38;100.00
64632;BME280;58358;50.936;0.246;2023-04-28T02:44:28;100300.71;;;9.07;100.00
64632;BME280;58358;50.936;0.246;2023-04-28T02:46:53;100293.08;;;9.66;100.00
64632;BME280;58358;50.936;0.246;2023-04-28T02:49:19;100297.85;;;8.89;100.00
64632;BME280;58358;50.936;0.246;2023-04-28T02:51:45;100304.66;;;9.36;100.00
64632;BME280;58358;50.936;0.246;2023-04-28T02:54:10;100310.51;;;8.51;100.00
64632;BME280;58358;50.936;0.246;2023-04-28T02:56:36;100304.15;;;8.16;100.00
64632;BME280;58358;50.936;0.246;2023-04-28T02:59:01;100299.75;;;7.95;100.00
64632;BME280;58358;50.936;0.246;2023-04-28T03:01:32;100306.20;;;8.12;100.00
64632;BME280;58358;50.936;0.246;2023-04-28T03:03:53;100309.20;;;8.02;100.00
64632;BME280;58358;50.936;0.246;2023-04-28T03:06:19;100310.10;;;8.38;100.00
64632;BME280;58358;50.936;0.246;2023-04-28T03:08:45;100307.27;;;8.07;100.00
64632;BME280;58358;50.936;0.246;2023-04-28T03:11:10;100311.61;;;8.12;100.00
64632;BME280;58358;50.936;0.246;2023-04-28T03:13:36;100304.87;;;8.53;100.00
64632;BME280;58358;50.936;0.246;2023-04-28T03:16:02;100309.56;;;8.72;100.00
64632;BME280;58358;50.936;0.246;2023-04-28T03:18:28;100309.37;;;8.48;100.00
64632;BME280;58358;50.936;0.246;2023-04-28T03:20:53;100303.10;;;8.12;100.00
64632;BME280;58358;50.936;0.246;2023-04-28T03:23:19;100302.16;;;8.09;100.00
64632;BME280;58358;50.936;0.246;2023-04-28T03:25:45;100309.72;;;8.91;100.00
64632;BME280;58358;50.936;0.246;2023-04-28T03:28:11;100306.17;;;9.28;100.00
64632;BME280;58358;50.936;0.246;2023-04-28T03:30:41;100301.49;;;8.91;100.00
64632;BME280;58358;50.936;0.246;2023-04-28T03:33:02;100298.68;;;8.75;100.00
64632;BME280;58358;50.936;0.246;2023-04-28T03:35:28;100304.75;;;7.71;100.00
64632;BME280;58358;50.936;0.246;2023-04-28T03:37:58;100302.66;;;7.75;100.00
64632;BME280;58358;50.936;0.246;2023-04-28T03:40:19;100297.78;;;7.88;100.00
64632;BME280;58358;50.936;0.246;2023-04-28T03:42:45;100299.55;;;7.88;100.00
64632;BME280;58358;50.936;0.246;2023-04-28T03:45:11;100303.09;;;8.82;100.00
64632;BME280;58358;50.936;0.246;2023-04-28T03:47:36;100299.44;;;8.82;100.00
64632;BME280;58358;50.936;0.246;2023-04-28T03:50:03;100301.32;;;8.85;100.00
64632;BME280;58358;50.936;0.246;2023-04-28T03:52:27;100311.21;;;9.59;100.00
64632;BME280;58358;50.936;0.246;2023-04-28T03:54:53;100310.72;;;8.64;100.00
64632;BME280;58358;50.936;0.246;2023-04-28T03:57:19;100310.32;;;7.90;100.00
64632;BME280;58358;50.936;0.246;2023-04-28T03:59:45;100312.87;;;8.91;100.00
64632;BME280;58358;50.936;0.246;2023-04-28T04:02:11;100315.45;;;8.58;100.00
64632;BME280;58358;50.936;0.246;2023-04-28T04:04:41;100304.11;;;8.52;100.00
64632;BME280;58358;50.936;0.246;2023-04-28T04:07:02;100313.60;;;8.68;100.00
64632;BME280;58358;50.936;0.246;2023-04-28T04:09:28;100313.67;;;8.11;100.00
64632;BME280;58358;50.936;0.246;2023-04-28T04:11:53;100313.61;;;8.93;100.00
64632;BME280;58358;50.936;0.246;2023-04-28T04:14:19;100314.11;;;7.99;100.00
64632;BME280;58358;50.936;0.246;2023-04-28T04:16:45;100314.05;;;8.73;100.00
64632;BME280;58358;50.936;0.246;2023-04-28T04:19:16;100314.36;;;8.35;100.00
64632;BME280;58358;50.936;0.246;2023-04-28T04:21:36;100310.79;;;8.65;100.00
64632;BME280;58358;50.936;0.246;2023-04-28T04:24:02;100311.10;;;8.86;100.00
64632;BME280;58358;50.936;0.246;2023-04-28T04:26:28;100309.15;;;8.48;100.00
64632;BME280;58358;50.936;0.246;2023-04-28T04:28:54;100308.84;;;7.91;100.00
64632;BME280;58358;50.936;0.246;2023-04-28T04:31:19;100311.02;;;8.50;100.00
64632;BME280;58358;50.936;0.246;2023-04-28T04:33:45;100314.29;;;7.72;100.00
64632;BME280;58358;50.936;0.246;2023-04-28T04:36:11;100319.54;;;8.20;100.00
64632;BME280;58358;50.936;0.246;2023-04-28T04:38:37;100322.28;;;8.40;100.00
64632;BME280;58358;50.936;0.246;2023-04-28T04:41:03;100319.35;;;8.34;100.00
64632;BME280;58358;50.936;0.246;2023-04-28T04:43:28;100314.13;;;7.74;100.00
64632;BME280;58358;50.936;0.246;2023-04-28T04:45:54;100314.30;;;7.37;100.00
64632;BME280;58358;50.936;0.246;2023-04-28T04:48:20;100311.04;;;7.52;100.00
64632;BME280;58358;50.936;0.246;2023-04-28T04:50:46;100313.54;;;8.10;100.00
64632;BME280;58358;50.936;0.246;2023-04-28T04:53:11;100316.29;;;8.53;100.00
64632;BME280;58358;50.936;0.246;2023-04-28T04:55:37;100318.95;;;8.43;100.00
64632;BME280;58358;50.936;0.246;2023-04-28T04:58:03;100323.97;;;8.99;100.00
64632;BME280;58358;50.936;0.246;2023-04-28T05:00:29;100316.72;;;7.78;100.00
64632;BME280;58358;50.936;0.246;2023-04-28T05:03:00;100321.56;;;8.48;100.00
64632;BME280;58358;50.936;0.246;2023-04-28T05:05:20;100324.60;;;8.22;100.00
64632;BME280;58358;50.936;0.246;2023-04-28T05:07:46;100326.34;;;8.83;100.00
64632;BME280;58358;50.936;0.246;2023-04-28T05:10:11;100323.65;;;9.15;100.00
64632;BME280;58358;50.936;0.246;2023-04-28T05:12:37;100328.41;;;7.99;100.00
64632;BME280;58358;50.936;0.246;2023-04-28T05:15:08;100332.21;;;8.36;100.00
64632;BME280;58358;50.936;0.246;2023-04-28T05:17:38;100336.67;;;8.60;100.00
64632;BME280;58358;50.936;0.246;2023-04-28T05:19:54;100333.37;;;9.18;100.00
64632;BME280;58358;50.936;0.246;2023-04-28T05:22:19;100338.55;;;8.40;100.00
64632;BME280;58358;50.936;0.246;2023-04-28T05:24:45;100338.51;;;8.99;100.00
64632;BME280;58358;50.936;0.246;2023-04-28T05:27:11;100343.26;;;8.80;100.00
64632;BME280;58358;50.936;0.246;2023-04-28T05:29:36;100345.42;;;9.28;100.00
64632;BME280;58358;50.936;0.246;2023-04-28T05:32:03;100355.30;;;8.83;100.00
64632;BME280;58358;50.936;0.246;2023-04-28T05:34:28;100352.27;;;8.29;100.00
64632;BME280;58358;50.936;0.246;2023-04-28T05:36:54;100355.87;;;8.59;100.00
64632;BME280;58358;50.936;0.246;2023-04-28T05:39:19;100352.78;;;8.12;100.00
64632;BME280;58358;50.936;0.246;2023-04-28T05:41:45;100351.66;;;8.21;100.00
64632;BME280;58358;50.936;0.246;2023-04-28T05:44:11;100355.85;;;7.80;100.00
64632;BME280;58358;50.936;0.246;2023-04-28T05:46:36;100365.15;;;8.60;100.00
64632;BME280;58358;50.936;0.246;2023-04-28T05:49:02;100364.69;;;8.56;100.00
64632;BME280;58358;50.936;0.246;2023-04-28T05:51:28;100367.81;;;8.68;100.00
64632;BME280;58358;50.936;0.246;2023-04-28T05:53:53;100372.64;;;8.76;100.00
64632;BME280;58358;50.936;0.246;2023-04-28T05:56:19;100375.30;;;8.89;100.00
64632;BME280;58358;50.936;0.246;2023-04-28T05:58:45;100375.38;;;9.02;100.00
64632;BME280;58358;50.936;0.246;2023-04-28T06:01:11;100379.42;;;9.44;100.00
64632;BME280;58358;50.936;0.246;2023-04-28T06:03:36;100378.81;;;9.49;100.00
64632;BME280;58358;50.936;0.246;2023-04-28T06:06:02;100384.58;;;8.52;100.00
64632;BME280;58358;50.936;0.246;2023-04-28T06:08:28;100382.62;;;8.26;100.00
64632;BME280;58358;50.936;0.246;2023-04-28T06:10:54;100384.09;;;8.79;100.00
64632;BME280;58358;50.936;0.246;2023-04-28T06:13:19;100385.31;;;8.12;100.00
64632;BME280;58358;50.936;0.246;2023-04-28T06:15:45;100389.96;;;8.40;100.00
64632;BME280;58358;50.936;0.246;2023-04-28T06:18:10;100388.44;;;8.97;100.00
64632;BME280;58358;50.936;0.246;2023-04-28T06:20:36;100387.43;;;8.32;100.00
64632;BME280;58358;50.936;0.246;2023-04-28T06:23:01;100390.69;;;8.94;100.00
64632;BME280;58358;50.936;0.246;2023-04-28T06:25:26;100391.13;;;8.92;100.00
64632;BME280;58358;50.936;0.246;2023-04-28T06:27:52;100391.79;;;9.10;100.00
64632;BME280;58358;50.936;0.246;2023-04-28T06:30:23;100395.05;;;9.11;100.00
64632;BME280;58358;50.936;0.246;2023-04-28T06:32:43;100395.78;;;8.85;100.00
64632;BME280;58358;50.936;0.246;2023-04-28T06:35:09;100397.37;;;9.91;100.00
64632;BME280;58358;50.936;0.246;2023-04-28T06:37:34;100401.73;;;10.15;100.00
64632;BME280;58358;50.936;0.246;2023-04-28T06:40:00;100408.13;;;9.44;100.00
64632;BME280;58358;50.936;0.246;2023-04-28T06:42:26;100410.63;;;9.33;100.00
64632;BME280;58358;50.936;0.246;2023-04-28T06:44:56;100411.95;;;8.31;100.00
64632;BME280;58358;50.936;0.246;2023-04-28T06:47:17;100416.25;;;9.28;100.00
64632;BME280;58358;50.936;0.246;2023-04-28T06:49:42;100418.20;;;8.67;100.00
64632;BME280;58358;50.936;0.246;2023-04-28T06:52:08;100419.42;;;8.79;100.00
64632;BME280;58358;50.936;0.246;2023-04-28T06:54:33;100423.66;;;9.27;100.00
64632;BME280;58358;50.936;0.246;2023-04-28T06:56:58;100424.90;;;8.62;100.00
64632;BME280;58358;50.936;0.246;2023-04-28T06:59:24;100427.58;;;9.34;100.00
64632;BME280;58358;50.936;0.246;2023-04-28T07:01:49;100429.20;;;8.90;100.00
64632;BME280;58358;50.936;0.246;2023-04-28T07:04:15;100430.40;;;8.93;100.00
64632;BME280;58358;50.936;0.246;2023-04-28T07:06:40;100428.20;;;10.39;100.00
64632;BME280;58358;50.936;0.246;2023-04-28T07:09:06;100428.07;;;8.95;100.00
64632;BME280;58358;50.936;0.246;2023-04-28T07:11:31;100427.89;;;9.05;100.00
64632;BME280;58358;50.936;0.246;2023-04-28T07:13:57;100430.92;;;9.22;100.00
64632;BME280;58358;50.936;0.246;2023-04-28T07:16:22;100432.17;;;8.50;100.00
64632;BME280;58358;50.936;0.246;2023-04-28T07:18:47;100435.07;;;8.50;100.00
64632;BME280;58358;50.936;0.246;2023-04-28T07:21:13;100445.18;;;9.41;100.00
64632;BME280;58358;50.936;0.246;2023-04-28T07:23:38;100448.04;;;9.24;100.00
64632;BME280;58358;50.936;0.246;2023-04-28T07:26:04;100445.10;;;8.89;100.00
64632;BME280;58358;50.936;0.246;2023-04-28T07:28:29;100450.39;;;9.11;100.00
64632;BME280;58358;50.936;0.246;2023-04-28T07:30:54;100450.20;;;9.00;100.00
64632;BME280;58358;50.936;0.246;2023-04-28T07:33:20;100451.61;;;8.99;100.00
64632;BME280;58358;50.936;0.246;2023-04-28T07:35:45;100460.38;;;9.25;100.00
64632;BME280;58358;50.936;0.246;2023-04-28T07:38:11;100457.76;;;9.32;100.00
64632;BME280;58358;50.936;0.246;2023-04-28T07:40:37;100464.05;;;9.01;100.00
64632;BME280;58358;50.936;0.246;2023-04-28T07:43:03;100466.55;;;10.31;100.00
64632;BME280;58358;50.936;0.246;2023-04-28T07:45:28;100471.12;;;9.74;100.00
64632;BME280;58358;50.936;0.246;2023-04-28T07:47:53;100470.86;;;10.13;100.00
64632;BME280;58358;50.936;0.246;2023-04-28T07:50:18;100469.84;;;8.49;100.00
64632;BME280;58358;50.936;0.246;2023-04-28T07:52:44;100480.64;;;9.63;100.00
64632;BME280;58358;50.936;0.246;2023-04-28T07:55:09;100482.47;;;9.62;100.00
64632;BME280;58358;50.936;0.246;2023-04-28T07:57:34;100483.61;;;10.03;100.00
64632;BME280;58358;50.936;0.246;2023-04-28T08:00:00;100487.64;;;8.99;100.00
64632;BME280;58358;50.936;0.246;2023-04-28T08:02:26;100486.87;;;9.77;100.00
64632;BME280;58358;50.936;0.246;2023-04-28T08:04:51;100493.95;;;9.56;100.00
64632;BME280;58358;50.936;0.246;2023-04-28T08:07:17;100493.72;;;9.57;100.00
64632;BME280;58358;50.936;0.246;2023-04-28T08:09:42;100497.21;;;9.95;100.00
64632;BME280;58358;50.936;0.246;2023-04-28T08:12:07;100495.89;;;8.75;100.00
64632;BME280;58358;50.936;0.246;2023-04-28T08:14:33;100502.68;;;9.76;100.00
64632;BME280;58358;50.936;0.246;2023-04-28T08:17:04;100503.31;;;9.57;100.00
64632;BME280;58358;50.936;0.246;2023-04-28T08:19:24;100509.14;;;9.73;100.00
64632;BME280;58358;50.936;0.246;2023-04-28T08:21:49;100509.22;;;9.34;100.00
64632;BME280;58358;50.936;0.246;2023-04-28T08:24:15;100508.01;;;10.23;100.00
64632;BME280;58358;50.936;0.246;2023-04-28T08:26:46;100513.68;;;9.88;100.00
64632;BME280;58358;50.936;0.246;2023-04-28T08:29:06;100514.08;;;10.27;100.00
64632;BME280;58358;50.936;0.246;2023-04-28T08:31:32;100516.08;;;10.13;100.00
64632;BME280;58358;50.936;0.246;2023-04-28T08:33:58;100519.40;;;10.06;100.00
64632;BME280;58358;50.936;0.246;2023-04-28T08:36:24;100517.92;;;9.45;100.00
64632;BME280;58358;50.936;0.246;2023-04-28T08:38:49;100515.36;;;10.62;100.00
64632;BME280;58358;50.936;0.246;2023-04-28T08:41:15;100519.55;;;10.48;100.00
64632;BME280;58358;50.936;0.246;2023-04-28T08:43:40;100519.22;;;10.17;100.00
64632;BME280;58358;50.936;0.246;2023-04-28T08:46:07;100511.59;;;10.63;100.00
64632;BME280;58358;50.936;0.246;2023-04-28T08:48:38;100516.44;;;11.34;100.00
64632;BME280;58358;50.936;0.246;2023-04-28T08:50:57;100516.35;;;11.37;100.00
64632;BME280;58358;50.936;0.246;2023-04-28T08:53:24;100518.99;;;11.33;100.00
64632;BME280;58358;50.936;0.246;2023-04-28T08:55:49;100519.31;;;10.91;100.00
64632;BME280;58358;50.936;0.246;2023-04-28T08:58:14;100522.67;;;10.64;100.00
64632;BME280;58358;50.936;0.246;2023-04-28T09:00:39;100521.83;;;10.96;100.00
64632;BME280;58358;50.936;0.246;2023-04-28T09:03:05;100520.67;;;11.10;100.00
64632;BME280;58358;50.936;0.246;2023-04-28T09:05:30;100525.78;;;11.13;100.00
64632;BME280;58358;50.936;0.246;2023-04-28T09:08:01;100529.53;;;10.85;100.00
64632;BME280;58358;50.936;0.246;2023-04-28T09:10:23;100531.22;;;10.94;100.00
64632;BME280;58358;50.936;0.246;2023-04-28T09:12:50;100527.42;;;10.97;100.00
64632;BME280;58358;50.936;0.246;2023-04-28T09:17:46;100533.37;;;10.30;100.00
64632;BME280;58358;50.936;0.246;2023-04-28T09:22:30;100543.93;;;10.40;100.00
64632;BME280;58358;50.936;0.246;2023-04-28T09:24:55;100543.70;;;9.37;100.00
64632;BME280;58358;50.936;0.246;2023-04-28T09:27:26;100542.79;;;8.52;100.00
64632;BME280;58358;50.936;0.246;2023-04-28T09:29:52;100549.70;;;9.56;100.00
64632;BME280;58358;50.936;0.246;2023-04-28T09:32:18;100547.79;;;10.59;100.00
64632;BME280;58358;50.936;0.246;2023-04-28T09:34:42;100547.91;;;11.12;100.00
64632;BME280;58358;50.936;0.246;2023-04-28T09:37:14;100552.40;;;10.44;100.00
64632;BME280;58358;50.936;0.246;2023-04-28T09:39:29;100555.22;;;10.27;100.00
64632;BME280;58358;50.936;0.246;2023-04-28T09:41:55;100556.00;;;10.13;100.00
64632;BME280;58358;50.936;0.246;2023-04-28T09:44:20;100560.94;;;9.82;100.00
64632;BME280;58358;50.936;0.246;2023-04-28T09:46:47;100558.25;;;9.55;100.00
64632;BME280;58358;50.936;0.246;2023-04-28T09:49:12;100560.23;;;9.61;100.00
64632;BME280;58358;50.936;0.246;2023-04-28T09:51:38;100559.42;;;11.43;100.00
64632;BME280;58358;50.936;0.246;2023-04-28T09:54:04;100561.29;;;11.32;100.00
64632;BME280;58358;50.936;0.246;2023-04-28T09:56:31;100566.92;;;10.43;100.00
64632;BME280;58358;50.936;0.246;2023-04-28T09:58:56;100560.78;;;12.08;100.00
64632;BME280;58358;50.936;0.246;2023-04-28T10:01:20;100562.81;;;11.73;100.00
64632;BME280;58358;50.936;0.246;2023-04-28T10:03:48;100563.98;;;11.72;100.00
64632;BME280;58358;50.936;0.246;2023-04-28T10:06:12;100560.98;;;10.98;100.00
64632;BME280;58358;50.936;0.246;2023-04-28T10:08:43;100562.73;;;12.35;100.00
64632;BME280;58358;50.936;0.246;2023-04-28T10:11:04;100561.61;;;11.68;100.00
64632;BME280;58358;50.936;0.246;2023-04-28T10:13:28;100570.83;;;10.73;100.00
64632;BME280;58358;50.936;0.246;2023-04-28T10:15:54;100572.35;;;10.68;100.00
64632;BME280;58358;50.936;0.246;2023-04-28T10:18:21;100574.97;;;10.70;100.00
64632;BME280;58358;50.936;0.246;2023-04-28T10:20:48;100572.63;;;11.56;100.00
64632;BME280;58358;50.936;0.246;2023-04-28T10:23:20;100579.84;;;10.96;100.00
64632;BME280;58358;50.936;0.246;2023-04-28T10:25:37;100587.43;;;10.65;100.00
64632;BME280;58358;50.936;0.246;2023-04-28T10:28:05;100589.04;;;10.13;100.00
64632;BME280;58358;50.936;0.246;2023-04-28T10:30:28;100589.67;;;10.44;100.00
64632;BME280;58358;50.936;0.246;2023-04-28T10:42:51;100597.91;;;11.64;100.00
64632;BME280;58358;50.936;0.246;2023-04-28T10:45:02;100600.52;;;12.15;100.00
64632;BME280;58358;50.936;0.246;2023-04-28T10:47:28;100598.98;;;12.95;100.00
64632;BME280;58358;50.936;0.246;2023-04-28T10:50:04;100598.23;;;12.79;100.00
64632;BME280;58358;50.936;0.246;2023-04-28T10:57:17;100601.64;;;11.92;100.00
64632;BME280;58358;50.936;0.246;2023-04-28T10:59:36;100607.76;;;11.97;100.00
64632;BME280;58358;50.936;0.246;2023-04-28T11:04:27;100610.28;;;12.27;100.00
64632;BME280;58358;50.936;0.246;2023-04-28T11:07:08;100608.40;;;12.00;100.00
64632;BME280;58358;50.936;0.246;2023-04-28T11:19:01;100613.47;;;12.53;100.00
64632;BME280;58358;50.936;0.246;2023-04-28T11:21:26;100616.81;;;12.67;99.90
64632;BME280;58358;50.936;0.246;2023-04-28T11:23:52;100618.33;;;11.93;100.00
64632;BME280;58358;50.936;0.246;2023-04-28T11:26:18;100616.30;;;13.42;99.25
64632;BME280;58358;50.936;0.246;2023-04-28T11:28:52;100617.65;;;13.54;96.43
64632;BME280;58358;50.936;0.246;2023-04-28T11:31:10;100612.71;;;13.02;96.80
64632;BME280;58358;50.936;0.246;2023-04-28T11:33:35;100620.19;;;12.55;99.39
64632;BME280;58358;50.936;0.246;2023-04-28T11:36:00;100618.86;;;11.95;100.00
64632;BME280;58358;50.936;0.246;2023-04-28T11:38:25;100622.34;;;12.49;99.38
64632;BME280;58358;50.936;0.246;2023-04-28T11:40:56;100623.42;;;12.70;98.02
64632;BME280;58358;50.936;0.246;2023-04-28T11:43:17;100624.86;;;11.94;100.00
64632;BME280;58358;50.936;0.246;2023-04-28T11:45:45;100630.15;;;12.77;97.75
64632;BME280;58358;50.936;0.246;2023-04-28T11:50:35;100634.42;;;12.82;95.66
64632;BME280;58358;50.936;0.246;2023-04-28T11:52:59;100630.59;;;12.53;95.72
64632;BME280;58358;50.936;0.246;2023-04-28T11:55:25;100630.81;;;14.08;91.07
64632;BME280;58358;50.936;0.246;2023-04-28T12:00:17;100629.66;;;13.58;89.19
64632;BME280;58358;50.936;0.246;2023-04-28T12:02:42;100627.19;;;13.58;90.19
64632;BME280;58358;50.936;0.246;2023-04-28T12:05:09;100632.15;;;13.75;90.50
64632;BME280;58358;50.936;0.246;2023-04-28T12:07:40;100631.88;;;14.08;89.13
64632;BME280;58358;50.936;0.246;2023-04-28T12:10:10;100640.58;;;13.80;90.65
64632;BME280;58358;50.936;0.246;2023-04-28T12:12:28;100642.06;;;13.11;89.88
64632;BME280;58358;50.936;0.246;2023-04-28T12:14:55;100648.76;;;13.49;91.38
64632;BME280;58358;50.936;0.246;2023-04-28T12:17:22;100644.61;;;12.93;92.38
64632;BME280;58358;50.936;0.246;2023-04-28T12:19:43;100650.91;;;12.64;94.62
64632;BME280;58358;50.936;0.246;2023-04-28T12:22:07;100650.96;;;12.83;94.99
64632;BME280;58358;50.936;0.246;2023-04-28T12:24:33;100655.71;;;13.27;91.39
64632;BME280;58358;50.936;0.246;2023-04-28T12:27:13;100660.26;;;13.65;88.07
64632;BME280;58358;50.936;0.246;2023-04-28T12:29:35;100660.83;;;14.77;86.86
64632;BME280;58358;50.936;0.246;2023-04-28T12:31:49;100660.58;;;14.28;85.18
64632;BME280;58358;50.936;0.246;2023-04-28T12:34:15;100663.00;;;14.24;86.64
64632;BME280;58358;50.936;0.246;2023-04-28T12:36:40;100666.94;;;14.45;85.63
64632;BME280;58358;50.936;0.246;2023-04-28T12:39:12;100663.26;;;14.49;85.49
64632;BME280;58358;50.936;0.246;2023-04-28T12:41:32;100661.92;;;13.90;87.79
64632;BME280;58358;50.936;0.246;2023-04-28T12:43:57;100665.87;;;14.29;84.35
64632;BME280;58358;50.936;0.246;2023-04-28T12:46:23;100666.77;;;13.87;86.62
64632;BME280;58358;50.936;0.246;2023-04-28T12:48:48;100677.26;;;13.95;89.72
64632;BME280;58358;50.936;0.246;2023-04-28T12:51:14;100680.72;;;13.68;87.54
64632;BME280;58358;50.936;0.246;2023-04-28T12:53:40;100680.79;;;13.63;88.36
64632;BME280;58358;50.936;0.246;2023-04-28T12:56:05;100679.12;;;14.11;85.91
64632;BME280;58358;50.936;0.246;2023-04-28T12:58:31;100679.54;;;14.54;84.42
64632;BME280;58358;50.936;0.246;2023-04-28T13:00:56;100684.51;;;13.86;87.06
64632;BME280;58358;50.936;0.246;2023-04-28T13:03:22;100683.60;;;14.10;87.68
64632;BME280;58358;50.936;0.246;2023-04-28T13:05:48;100683.08;;;14.61;86.93
64632;BME280;58358;50.936;0.246;2023-04-28T13:08:13;100695.75;;;14.04;86.11
64632;BME280;58358;50.936;0.246;2023-04-28T13:10:39;100692.37;;;14.16;85.51
64632;BME280;58358;50.936;0.246;2023-04-28T13:13:05;100697.73;;;14.44;85.71
64632;BME280;58358;50.936;0.246;2023-04-28T13:15:30;100705.20;;;13.36;86.50